createdAt,value
2023-03-16T00:00:50.933Z,28.75
2023-03-16T00:03:21.581Z,21.25
2023-03-16T00:05:54.458Z,25.50
2023-03-16T00:08:25.521Z,23.75
2023-03-16T00:10:56.050Z,22.50
2023-03-16T00:13:27.408Z,25.50
2023-03-16T00:16:00.175Z,22.75
2023-03-16T00:18:31.979Z,17.00
2023-03-16T00:21:03.271Z,24.25
2023-03-16T00:23:34.755Z,21.75
2023-03-16T00:26:08.514Z,25.25
2023-03-16T00:28:39.826Z,23.25
2023-03-16T00:31:11.945Z,23.75
2023-03-16T00:33:43.031Z,21.25
2023-03-16T00:36:15.217Z,25.50
2023-03-16T00:38:46.357Z,23.75
2023-03-16T00:41:17.196Z,25.25
2023-03-16T00:43:47.615Z,24.00
2023-03-16T00:46:18.632Z,25.00
2023-03-16T00:48:49.325Z,24.00
2023-03-16T00:51:20.402Z,24.00
2023-03-16T00:53:51.886Z,24.50
2023-03-16T00:56:22.421Z,24.75
2023-03-16T00:58:53.364Z,24.00
2023-03-16T01:01:24.429Z,25.75
2023-03-16T01:03:55.469Z,25.25
2023-03-16T01:06:26.717Z,23.75
2023-03-16T01:08:57.289Z,24.00
2023-03-16T01:11:27.845Z,25.50
2023-03-16T01:13:58.329Z,25.75
2023-03-16T01:16:28.972Z,27.25
2023-03-16T01:18:59.506Z,26.00
2023-03-16T01:21:29.986Z,25.75
2023-03-16T01:24:00.921Z,25.75
2023-03-16T01:26:31.966Z,27.25
2023-03-16T01:29:02.961Z,29.25
2023-03-16T01:31:34.824Z,29.00
2023-03-16T01:34:05.574Z,29.75
2023-03-16T01:36:37.457Z,32.50
2023-03-16T01:39:07.836Z,32.25
2023-03-16T01:41:38.975Z,35.50
2023-03-16T01:44:39.371Z,35.25
2023-03-16T01:47:09.817Z,33.25
2023-03-16T01:49:40.370Z,36.50
2023-03-16T01:52:18.135Z,32.75
2023-03-16T01:55:12.725Z,33.25
2023-03-16T01:57:46.126Z,28.50
2023-03-16T02:00:19.835Z,28.50
2023-03-16T02:02:54.705Z,28.25
2023-03-16T02:05:30.188Z,27.25
2023-03-16T02:08:22.148Z,29.00
2023-03-16T02:10:54.147Z,25.50
2023-03-16T02:13:26.156Z,24.00
2023-03-16T02:15:58.456Z,21.25
2023-03-16T02:18:29.586Z,25.25
2023-03-16T02:21:29.674Z,23.25
2023-03-16T02:24:02.533Z,24.50
2023-03-16T02:27:00.021Z,25.25
2023-03-16T02:29:48.730Z,24.00
2023-03-16T02:32:21.529Z,23.75
2023-03-16T02:34:52.591Z,23.25
2023-03-16T02:37:23.680Z,24.00
2023-03-16T02:39:54.237Z,22.50
2023-03-16T02:42:26.812Z,24.00
2023-03-16T02:45:00.284Z,19.50
2023-03-16T02:47:36.124Z,23.75
2023-03-16T02:50:06.598Z,22.00
2023-03-16T02:52:39.336Z,24.00
2023-03-16T02:55:10.313Z,22.00
2023-03-16T02:57:41.726Z,23.75
2023-03-16T03:00:12.740Z,20.50
2023-03-16T03:02:44.530Z,20.75
2023-03-16T03:05:15.048Z,31.75
2023-03-16T03:07:46.284Z,28.00
2023-03-16T03:10:17.082Z,23.75
2023-03-16T03:12:48.164Z,26.75
2023-03-16T03:15:19.241Z,28.00
2023-03-16T03:17:50.524Z,28.50
2023-03-16T03:20:20.882Z,29.00
2023-03-16T03:22:52.639Z,28.00
2023-03-16T03:25:24.061Z,28.00
2023-03-16T03:27:55.377Z,24.75
2023-03-16T03:30:27.761Z,27.25
2023-03-16T03:32:58.579Z,27.75
2023-03-16T03:35:31.007Z,30.75
2023-03-16T03:38:02.159Z,29.00
2023-03-16T03:40:33.224Z,28.75
2023-03-16T03:43:05.677Z,36.00
2023-03-16T03:45:36.140Z,37.25
2023-03-16T03:48:07.068Z,36.75
2023-03-16T03:50:38.112Z,35.25
2023-03-16T03:53:09.744Z,35.25
2023-03-16T03:55:40.685Z,33.75
2023-03-16T03:58:11.716Z,35.25
2023-03-16T04:00:42.751Z,35.25
2023-03-16T04:03:14.221Z,29.25
2023-03-16T04:05:46.148Z,29.00
2023-03-16T04:08:16.823Z,29.00
2023-03-16T04:10:48.204Z,20.50
2023-03-16T04:13:18.776Z,23.00
2023-03-16T04:15:49.390Z,23.50
2023-03-16T04:18:19.882Z,24.00
2023-03-16T04:20:52.180Z,21.00
2023-03-16T04:23:23.281Z,24.00
2023-03-16T04:25:54.284Z,21.25
2023-03-16T04:28:25.788Z,21.75
2023-03-16T04:30:58.374Z,21.75
2023-03-16T04:33:36.370Z,24.00
2023-03-16T04:36:07.872Z,23.25
2023-03-16T04:38:41.438Z,20.25
2023-03-16T04:41:12.305Z,20.75
2023-03-16T04:43:43.624Z,20.25
2023-03-16T04:46:14.060Z,24.25
2023-03-16T04:48:44.559Z,24.00
2023-03-16T04:51:15.164Z,18.50
2023-03-16T04:53:46.095Z,23.50
2023-03-16T04:56:17.451Z,24.75
2023-03-16T04:58:52.748Z,24.00
2023-03-16T05:01:23.872Z,24.00
2023-03-16T05:03:54.304Z,24.75
2023-03-16T05:06:26.752Z,20.50
2023-03-16T05:09:00.166Z,25.25
2023-03-16T05:11:30.972Z,22.25
2023-03-16T05:14:02.256Z,23.00
2023-03-16T05:16:33.428Z,23.75
2023-03-16T05:19:03.803Z,24.50
2023-03-16T05:21:34.797Z,21.75
2023-03-16T05:24:08.943Z,25.75
2023-03-16T05:26:39.666Z,24.25
2023-03-16T05:29:10.082Z,23.75
2023-03-16T05:31:40.654Z,21.75
2023-03-16T05:34:11.877Z,21.50
2023-03-16T05:36:42.904Z,22.00
2023-03-16T05:39:13.478Z,21.75
2023-03-16T05:44:34.942Z,20.25
2023-03-16T05:47:05.437Z,24.00
2023-03-16T05:49:36.807Z,25.25
2023-03-16T05:52:08.155Z,22.75
2023-03-16T05:54:38.703Z,23.75
2023-03-16T05:57:09.713Z,21.75
2023-03-16T05:59:41.242Z,22.75
2023-03-16T06:02:13.454Z,24.00
2023-03-16T06:04:44.639Z,16.75
2023-03-16T06:07:15.229Z,22.00
2023-03-16T06:09:46.289Z,22.25
2023-03-16T06:12:17.663Z,21.00
2023-03-16T06:14:48.292Z,20.00
2023-03-16T06:17:21.496Z,21.50
2023-03-16T06:19:53.054Z,21.50
2023-03-16T06:22:28.447Z,16.25
2023-03-16T06:24:59.227Z,18.25
2023-03-16T06:27:31.815Z,20.50
2023-03-16T06:30:03.041Z,19.50
2023-03-16T06:32:35.799Z,19.25
2023-03-16T06:35:08.727Z,18.25
2023-03-16T06:37:40.187Z,22.50
2023-03-16T06:40:12.120Z,21.50
2023-03-16T06:42:46.630Z,24.25
2023-03-16T06:45:17.893Z,25.75
2023-03-16T06:47:48.896Z,23.75
2023-03-16T06:50:19.676Z,25.50
2023-03-16T06:52:50.738Z,27.00
2023-03-16T06:55:27.092Z,22.75
2023-03-16T06:58:00.540Z,25.00
2023-03-16T07:00:30.658Z,26.00
2023-03-16T07:03:02.573Z,27.00
2023-03-16T07:05:33.512Z,23.75
2023-03-16T07:08:05.561Z,27.25
2023-03-16T07:10:39.422Z,25.75
2023-03-16T07:13:09.775Z,26.00
2023-03-16T07:15:42.672Z,26.25
2023-03-16T07:18:13.205Z,26.00
2023-03-16T07:20:43.783Z,24.50
2023-03-16T07:23:17.566Z,24.50
2023-03-16T07:25:48.046Z,24.50
2023-03-16T07:31:20.548Z,24.75
2023-03-16T07:33:52.781Z,24.75
2023-03-16T07:36:25.011Z,25.50
2023-03-16T07:38:56.270Z,22.25
2023-03-16T07:41:32.660Z,23.25
2023-03-16T07:44:25.170Z,20.50
2023-03-16T07:47:05.179Z,22.75
2023-03-16T07:49:35.746Z,19.50
2023-03-16T07:52:06.272Z,23.25
2023-03-16T07:54:38.999Z,23.25
2023-03-16T07:57:15.949Z,23.25
2023-03-16T07:59:46.967Z,21.00
2023-03-16T08:02:20.052Z,25.75
2023-03-16T08:04:50.828Z,26.00
2023-03-16T08:07:21.292Z,24.75
2023-03-16T08:09:52.402Z,23.25
2023-03-16T08:12:22.851Z,23.25
2023-03-16T08:14:53.879Z,23.25
2023-03-16T08:17:24.466Z,12.75
2023-03-16T08:19:55.464Z,27.00
2023-03-16T08:22:26.316Z,26.50
2023-03-16T08:24:57.006Z,27.50
2023-03-16T08:27:29.743Z,27.75
2023-03-16T08:30:00.455Z,24.75
2023-03-16T08:35:23.040Z,21.75
2023-03-16T08:37:53.839Z,23.25
2023-03-16T08:40:24.369Z,24.25
2023-03-16T08:42:54.947Z,22.75
2023-03-16T08:45:30.497Z,23.50
2023-03-16T08:48:01.928Z,17.75
2023-03-16T08:50:33.187Z,24.75
2023-03-16T08:53:03.650Z,24.50
2023-03-16T08:55:34.322Z,23.75
2023-03-16T08:58:11.893Z,23.25
2023-03-16T09:00:50.701Z,28.00
2023-03-16T09:03:20.302Z,27.00
2023-03-16T09:05:51.184Z,24.50
2023-03-16T09:08:23.023Z,23.50
2023-03-16T09:11:05.028Z,23.50
2023-03-16T09:13:37.760Z,17.50
2023-03-16T09:16:11.098Z,26.25
2023-03-16T09:18:44.869Z,25.25
2023-03-16T09:21:15.535Z,26.25
2023-03-16T09:23:46.534Z,27.25
2023-03-16T09:26:17.838Z,24.25
2023-03-16T09:28:48.807Z,27.25
2023-03-16T09:31:21.002Z,26.25
2023-03-16T09:33:51.494Z,24.75
2023-03-16T09:36:22.522Z,25.25
2023-03-16T09:38:53.897Z,25.25
2023-03-16T09:41:29.893Z,25.00
2023-03-16T09:44:14.572Z,26.25
2023-03-16T09:46:50.771Z,26.25
2023-03-16T09:49:24.516Z,25.25
2023-03-16T09:52:16.378Z,24.50
2023-03-16T09:55:07.038Z,24.75
2023-03-16T09:57:45.978Z,23.00
2023-03-16T10:00:25.700Z,27.50
2023-03-16T10:03:02.368Z,23.50
2023-03-16T10:05:36.115Z,24.50
2023-03-16T10:08:29.170Z,23.25
2023-03-16T10:11:06.604Z,20.75
2023-03-16T10:13:55.732Z,24.50
2023-03-16T10:16:36.503Z,25.00
2023-03-16T10:19:15.735Z,26.00
2023-03-16T10:21:47.303Z,25.75
2023-03-16T10:24:24.532Z,25.25
2023-03-16T10:27:01.154Z,26.25
2023-03-16T10:29:52.454Z,23.25
2023-03-16T10:32:31.785Z,24.75
2023-03-16T10:35:14.494Z,26.75
2023-03-16T10:37:47.550Z,24.50
2023-03-16T10:40:18.297Z,27.25
2023-03-16T10:42:48.983Z,27.75
2023-03-16T10:45:34.055Z,26.00
2023-03-16T10:48:21.324Z,30.25
2023-03-16T10:50:55.402Z,30.75
2023-03-16T10:53:41.654Z,29.25
2023-03-16T10:56:22.739Z,31.00
2023-03-16T10:58:53.929Z,31.50
2023-03-16T11:01:28.345Z,27.25
2023-03-16T11:03:59.727Z,30.75
2023-03-16T11:06:33.020Z,29.00
2023-03-16T11:09:08.958Z,27.00
2023-03-16T11:11:41.371Z,29.25
2023-03-16T11:14:14.623Z,27.50
2023-03-16T11:16:57.294Z,30.50
2023-03-16T11:19:30.546Z,30.50
2023-03-16T11:22:16.346Z,28.25
2023-03-16T11:25:26.245Z,31.75
2023-03-16T11:28:08.381Z,33.75
2023-03-16T11:30:50.588Z,35.25
2023-03-16T11:33:22.826Z,33.75
2023-03-16T11:35:59.539Z,35.00
2023-03-16T11:38:47.569Z,32.75
2023-03-16T11:41:39.159Z,33.75
2023-03-16T11:44:16.552Z,31.00
2023-03-16T11:47:07.615Z,29.25
2023-03-16T11:49:58.808Z,32.00
2023-03-16T11:52:35.880Z,26.25
2023-03-16T11:55:17.744Z,31.00
2023-03-16T11:58:20.417Z,31.00
2023-03-16T12:00:53.904Z,31.00
2023-03-16T12:03:34.420Z,32.00
2023-03-16T12:06:36.599Z,28.50
2023-03-16T12:09:28.416Z,26.75
2023-03-16T12:12:30.770Z,25.00
2023-03-16T12:15:11.705Z,26.00
2023-03-16T12:17:44.789Z,27.25
2023-03-16T12:20:30.129Z,26.00
2023-03-16T12:23:04.589Z,26.00
2023-03-16T12:25:41.102Z,24.50
2023-03-16T12:28:20.470Z,24.75
2023-03-16T12:30:56.420Z,25.00
2023-03-16T12:34:02.051Z,23.00
2023-03-16T12:36:55.334Z,23.00
2023-03-16T12:39:42.216Z,23.25
2023-03-16T12:42:30.664Z,17.50
2023-03-16T12:45:16.254Z,20.25
2023-03-16T12:48:15.917Z,20.75
2023-03-16T12:50:59.795Z,20.50
2023-03-16T12:53:45.058Z,21.50
2023-03-16T12:56:21.309Z,20.00
2023-03-16T12:58:53.802Z,23.00
2023-03-16T13:01:36.433Z,19.25
2023-03-16T13:04:13.861Z,21.00
2023-03-16T13:06:47.837Z,24.25
2023-03-16T13:09:39.313Z,20.50
2023-03-16T13:12:31.201Z,23.00
2023-03-16T13:15:06.358Z,25.00
2023-03-16T13:17:45.044Z,23.50
2023-03-16T13:20:32.004Z,25.00
2023-03-16T13:23:25.484Z,25.00
2023-03-16T13:26:13.776Z,25.00
2023-03-16T13:28:59.169Z,24.75
2023-03-16T13:31:41.236Z,25.50
2023-03-16T13:34:17.909Z,25.50
2023-03-16T13:36:52.449Z,23.00
2023-03-16T13:39:29.002Z,25.00
2023-03-16T13:44:48.122Z,23.25
2023-03-16T13:47:20.240Z,25.50
2023-03-16T13:49:59.971Z,26.00
2023-03-16T13:52:38.662Z,25.00
2023-03-16T13:55:19.794Z,25.25
2023-03-16T13:57:52.523Z,23.25
2023-03-16T14:00:28.999Z,24.50
2023-03-16T14:03:02.564Z,26.25
2023-03-16T14:05:35.002Z,25.00
2023-03-16T14:08:07.080Z,29.25
2023-03-16T14:10:38.606Z,28.75
2023-03-16T14:13:25.273Z,27.75
2023-03-16T14:16:03.655Z,26.00
2023-03-16T14:18:42.995Z,29.00
2023-03-16T14:21:25.352Z,27.25
2023-03-16T14:23:58.960Z,27.25
2023-03-16T14:26:44.470Z,30.50
2023-03-16T14:29:18.620Z,27.00
2023-03-16T14:31:49.402Z,30.00
2023-03-16T14:34:29.018Z,29.75
2023-03-16T14:37:10.537Z,30.00
2023-03-16T14:39:42.485Z,27.75
2023-03-16T14:42:25.840Z,30.00
2023-03-16T14:44:59.704Z,31.00
2023-03-16T14:47:33.893Z,32.00
2023-03-16T14:50:07.407Z,28.75
2023-03-16T14:52:38.849Z,30.25
2023-03-16T14:55:15.217Z,27.25
2023-03-16T14:57:53.367Z,30.75
2023-03-16T15:00:25.771Z,28.00
2023-03-16T15:03:05.106Z,29.25
2023-03-16T15:05:42.213Z,30.00
2023-03-16T15:08:33.345Z,32.25
2023-03-16T15:11:06.756Z,25.25
2023-03-16T15:13:37.497Z,32.00
2023-03-16T15:16:12.945Z,30.50
2023-03-16T15:18:44.599Z,32.00
2023-03-16T15:21:26.440Z,30.50
2023-03-16T15:23:59.807Z,32.00
2023-03-16T15:26:30.800Z,31.00
2023-03-16T15:29:01.513Z,30.00
2023-03-16T15:31:33.458Z,31.50
2023-03-16T15:34:04.356Z,32.50
2023-03-16T15:36:35.050Z,31.75
2023-03-16T15:39:06.229Z,32.75
2023-03-16T15:41:47.134Z,33.00
2023-03-16T15:44:14.945Z,31.25
2023-03-16T15:46:47.176Z,32.00
2023-03-16T15:49:17.613Z,32.75
2023-03-16T15:51:50.459Z,32.00
2023-03-16T15:54:30.378Z,33.00
2023-03-16T15:57:05.072Z,33.25
2023-03-16T15:59:37.666Z,33.25
2023-03-16T16:02:29.009Z,32.00
2023-03-16T16:05:00.778Z,32.25
2023-03-16T16:07:32.167Z,32.00
2023-03-16T16:10:03.088Z,32.00
2023-03-16T16:12:34.104Z,31.25
2023-03-16T16:15:11.868Z,32.00
2023-03-16T16:17:54.042Z,32.25
2023-03-16T16:20:21.961Z,32.75
2023-03-16T16:22:58.242Z,32.00
2023-03-16T16:25:40.952Z,32.00
2023-03-16T16:28:23.505Z,32.50
2023-03-16T16:31:05.957Z,33.00
2023-03-16T16:33:36.805Z,32.00
2023-03-16T16:36:12.817Z,32.00
2023-03-16T16:38:46.058Z,32.50
2023-03-16T16:41:30.402Z,33.25
2023-03-16T16:44:03.751Z,32.00
2023-03-16T16:46:45.306Z,33.00
2023-03-16T16:49:30.827Z,34.50
2023-03-16T16:52:01.950Z,32.00
2023-03-16T16:54:35.959Z,32.00
2023-03-16T16:57:10.105Z,30.25
2023-03-16T16:59:44.777Z,32.00
2023-03-16T17:02:25.220Z,31.00
2023-03-16T17:04:57.485Z,32.00
2023-03-16T17:07:29.053Z,36.00
2023-03-16T17:10:01.625Z,31.50
2023-03-16T17:12:32.984Z,36.50
2023-03-16T17:15:03.895Z,33.50
2023-03-16T17:17:34.937Z,32.75
2023-03-16T17:20:08.761Z,32.00
2023-03-16T17:22:39.618Z,33.25
2023-03-16T17:25:10.123Z,32.00
2023-03-16T17:27:48.905Z,32.00
2023-03-16T17:30:31.792Z,18.50
2023-03-16T17:35:43.537Z,38.67
2023-03-16T17:38:23.107Z,37.75
2023-03-16T17:41:01.424Z,36.25
2023-03-16T17:43:32.162Z,32.25
2023-03-16T17:46:07.094Z,34.25
2023-03-16T17:48:40.743Z,33.25
2023-03-16T17:51:19.146Z,32.25
2023-03-16T17:53:50.598Z,32.75
2023-03-16T17:56:24.498Z,35.50
2023-03-16T17:58:57.247Z,32.00
2023-03-16T18:01:45.498Z,31.25
2023-03-16T18:04:33.069Z,32.25
2023-03-16T18:07:13.310Z,32.25
2023-03-16T18:09:47.042Z,32.25
2023-03-16T18:12:21.409Z,31.75
2023-03-16T18:14:53.261Z,32.25
2023-03-16T18:17:33.968Z,31.25
2023-03-16T18:20:27.789Z,32.75
2023-03-16T18:23:00.300Z,31.00
2023-03-16T18:25:37.251Z,33.00
2023-03-16T18:28:10.722Z,32.25
2023-03-16T18:33:33.656Z,33.25
2023-03-16T18:36:12.573Z,33.00
2023-03-16T18:38:47.101Z,33.00
2023-03-16T18:41:27.495Z,31.25
2023-03-16T18:44:00.999Z,33.50
2023-03-16T18:49:36.548Z,33.50
2023-03-16T18:52:38.641Z,32.25
2023-03-16T18:55:17.107Z,33.25
2023-03-16T18:57:54.058Z,31.25
2023-03-16T19:00:27.902Z,33.00
2023-03-16T19:03:04.716Z,33.00
2023-03-16T19:05:39.330Z,33.50
2023-03-16T19:08:20.331Z,33.00
2023-03-16T19:11:02.347Z,33.75
2023-03-16T19:13:40.969Z,28.00
2023-03-16T19:16:19.754Z,33.25
2023-03-16T19:18:58.002Z,33.00
2023-03-16T19:21:33.598Z,32.50
2023-03-16T19:24:11.467Z,28.75
2023-03-16T19:26:43.801Z,33.00
2023-03-16T19:29:20.613Z,30.25
2023-03-16T19:32:04.244Z,33.50
2023-03-16T19:34:46.936Z,34.00
2023-03-16T19:37:22.247Z,33.00
2023-03-16T19:40:12.754Z,31.75
2023-03-16T19:42:44.681Z,32.50
2023-03-16T19:45:28.105Z,28.50
2023-03-16T19:48:03.643Z,31.25
2023-03-16T19:50:35.992Z,32.00
2023-03-16T19:53:28.821Z,33.00
2023-03-16T19:56:10.659Z,32.00
2023-03-16T19:59:00.578Z,31.75
2023-03-16T20:01:40.583Z,30.75
2023-03-16T20:04:26.395Z,30.75
2023-03-16T20:06:58.841Z,32.00
2023-03-16T20:09:34.960Z,28.00
2023-03-16T20:15:40.793Z,32.25
2023-03-16T20:18:18.241Z,32.00
2023-03-16T20:20:55.944Z,31.75
2023-03-16T20:23:36.026Z,32.50
2023-03-16T20:29:37.575Z,31.50
2023-03-16T20:35:41.688Z,30.75
2023-03-16T20:45:32.778Z,31.00
2023-03-16T20:48:16.547Z,32.00
2023-03-16T20:59:41.597Z,28.25
2023-03-16T21:02:49.221Z,30.25
2023-03-16T21:05:26.977Z,26.50
2023-03-16T21:07:59.639Z,28.50
2023-03-16T21:10:32.451Z,25.50
2023-03-16T21:13:08.260Z,31.00
2023-03-16T21:15:40.710Z,28.25
2023-03-16T21:18:16.198Z,28.25
2023-03-16T21:20:49.465Z,27.75
2023-03-16T21:23:23.800Z,22.75
2023-03-16T21:25:59.448Z,26.75
2023-03-16T21:28:33.403Z,26.00
2023-03-16T21:31:06.288Z,26.25
2023-03-16T21:33:42.035Z,28.00
2023-03-16T21:36:18.471Z,26.50
2023-03-16T21:38:50.726Z,26.00
2023-03-16T21:41:22.192Z,26.25
2023-03-16T21:43:55.597Z,25.50
2023-03-16T21:46:29.501Z,24.50
2023-03-16T21:49:00.255Z,21.00
2023-03-16T21:51:31.570Z,22.00
2023-03-16T21:54:03.101Z,19.00
2023-03-16T21:56:34.314Z,20.00
2023-03-16T21:59:05.142Z,22.75
2023-03-16T22:01:50.629Z,18.50
2023-03-16T22:04:16.450Z,20.00
2023-03-16T22:06:47.111Z,18.75
2023-03-16T22:09:20.900Z,17.00
2023-03-16T22:11:51.812Z,20.50
2023-03-16T22:14:22.304Z,20.00
2023-03-16T22:16:53.402Z,15.75
2023-03-16T22:19:26.052Z,19.75
2023-03-16T22:21:56.998Z,16.00
2023-03-16T22:24:30.036Z,17.00
2023-03-16T22:27:00.724Z,16.25
2023-03-16T22:29:33.453Z,14.50
2023-03-16T22:32:13.957Z,19.00
2023-03-16T22:34:50.954Z,16.75
2023-03-16T22:37:24.611Z,18.25
2023-03-16T22:40:01.737Z,16.25
2023-03-16T22:45:36.823Z,14.75
2023-03-16T22:51:31.476Z,15.25
2023-03-16T22:54:07.847Z,15.50
2023-03-16T22:56:39.517Z,16.50
2023-03-16T22:59:12.916Z,18.00
2023-03-16T23:01:46.133Z,17.25
2023-03-16T23:04:19.349Z,12.50
2023-03-16T23:06:53.403Z,14.00
2023-03-16T23:09:25.163Z,13.25
2023-03-16T23:11:56.903Z,16.00
2023-03-16T23:14:30.874Z,14.00
2023-03-16T23:17:02.631Z,14.00
2023-03-16T23:19:35.153Z,11.00
2023-03-16T23:22:07.873Z,9.00
2023-03-16T23:24:38.772Z,12.25
2023-03-16T23:27:18.964Z,12.50
2023-03-16T23:29:50.139Z,14.25
2023-03-16T23:32:20.397Z,13.00
2023-03-16T23:34:51.824Z,15.75
2023-03-16T23:37:22.732Z,11.50
2023-03-16T23:39:56.939Z,14.25
2023-03-16T23:42:27.450Z,14.00
2023-03-16T23:45:01.700Z,13.75
2023-03-16T23:47:32.729Z,10.00
2023-03-16T23:50:04.907Z,12.50
2023-03-16T23:52:35.944Z,13.25
2023-03-16T23:55:09.443Z,12.25
2023-03-16T23:57:40.219Z,17.00
